Semmerzake, Belgium

1:52 AM CEST on October 21, 2014 (GMT +0200)
Industrieterein Poortakker | Change Station
CLOSE
Current Station
Personal Weather Station
Location: Gent, VLAAMS GEWEST
Elevation: 20 ft
Nearby Weather Stations

Elev 20 ft 51.03 °N, 3.69 °E | Updated 5 minutes ago

Clear
Clear
53.4 °F
Feels Like 53.4 °F
N
0.0
Wind Variable Wind from ESE
Gusts 4.0 mph

Today
High -- | Low -- °F
--% Chance of Precip.
Yesterday
High -- | Low -- °F
Precip. -- in
8:17 AM 6:40 PM
Waning Crescent, 8% visible
Pressure 29.95 in
Visibility 6.2 miles
Clouds
Dew Point 51 °F
Humidity 91%
Rainfall 0.00 in
Snow Depth Not available.
UV Not available.
Pollen Not available.
Air Quality Not available.
Flu Activity Not available.
METAR LFQQ 202330Z AUTO 21007KT 9999 NSC 12/11 Q1014

More Conditions Fewer Conditions

Pressure 29.95 in
Visibility 6.2 miles
Clouds
Dew Point 51 °F
Humidity 91%
Rainfall 0.00 in
Snow Depth Not available.
UV Not available.
Pollen Not available.
Air Quality Not available.
Flu Activity Not available.
METAR LFQQ 202330Z AUTO 21007KT 9999 NSC 12/11 Q1014

More Conditions Fewer Conditions

10-Day Weather Forecast

Almanac

Astronomy

Oct. 21, 2014 Rise Set
Actual Time 8:17 AM CEST 6:40 PM CEST
Civil Twilight 7:44 AM CEST 7:14 PM CEST
Nautical Twilight 7:05 AM CEST 7:52 PM CEST
Astronomical Twilight 6:27 AM CEST 8:30 PM CEST
Moon 5:32 AM CEST (10/21) 5:39 PM CEST (10/21)
Length of Visible Light 11h 30m
Length of Day
10h 22m
Tomorrow will be 3m 41s shorter.
Waning Crescent, 8% of the Moon is Illuminated
Oct 20
Waning Crescent
Oct 23
New
Oct 30
First Quarter
Nov 6
Full
Nov 14
Last Quarter

Yesterday's Extremes

Country Highs Country Lows

Community

WunderPhotos

Upload Photos

1,763,548 photos uploaded!

WunderBlogs® & News

By Dr. Jeff Masters
Director of Meteorology, Weather Underground
By Kari Strenfel
Meteorologist, Weather Underground
By Christopher C. Burt
Weather Historian, Weather Underground
October 20, 2014
October 20, 2014
October 20, 2014

Nearby

Snow Depth

Not available.

Earthquake Activity

City Distance Mag. Time & Date
No recent earthquake activity has been reported nearby.
Minimum magnitude displayed is 2.5.

Coastal Water Temperatures

Place Temperature
No Stations Reporting

Nearby Weather Stations